This is the latest recevied weather packets stored in our database for station/object KD9JB-1. If no packets are shown the sender has not sent any weather packets the latest 1 day(s).
| Time | Temp. | Humidity | Pressure | Rain* | Wind** | Luminosity | Snow |
|---|---|---|---|---|---|---|---|
| 1777997496 | 15° C | 90% | 1008.8 hPa | 5.59 mm | 0.89 m/s, 1° | - | - |
| 1777997196 | 15° C | 90% | 1008.9 hPa | 5.33 mm | 1.34 m/s, 217° | - | - |
| 1777996896 | 15° C | 90% | 1009.1 hPa | 5.08 mm | 1.34 m/s, 223° | - | - |
| 1777996596 | 15° C | 89% | 1009.2 hPa | 4.32 mm | 1.34 m/s, 245° | - | - |
| 1777996296 | 15° C | 88% | 1009.3 hPa | 4.06 mm | 1.34 m/s, 212° | - | - |
| 1777995996 | 15° C | 87% | 1009.3 hPa | 3.56 mm | 1.34 m/s, 257° | - | - |
| 1777995696 | 15.56° C | 84% | 1009.4 hPa | 2.79 mm | 1.34 m/s, 32° | - | - |
| 1777995396 | 16.11° C | 81% | 1009.3 hPa | 2.29 mm | 0.89 m/s, 240° | - | - |
| 1777995096 | 16.67° C | 76% | 1009.1 hPa | 1.27 mm | 0.89 m/s, 229° | - | - |
| 1777994796 | 17.22° C | 72% | 1008.8 hPa | 0 mm | 0.89 m/s, 117° | - | - |
| 1777994496 | 17.22° C | 71% | 1008.7 hPa | 0 mm | 0.89 m/s, 68° | - | - |
| 1777994196 | 17.78° C | 72% | 1008.4 hPa | 0 mm | 0.89 m/s, 226° | - | - |
| 1777993896 | 17.78° C | 71% | 1008.4 hPa | 0 mm | 0.89 m/s, 89° | - | - |
| 1777993596 | 17.78° C | 71% | 1008.2 hPa | 0 mm | 0.89 m/s, 129° | - | - |
| 1777993296 | 17.78° C | 71% | 1008.2 hPa | 0 mm | 0.89 m/s, 241° | - | - |
| 1777992996 | 17.22° C | 72% | 1008.2 hPa | 0 mm | 0.89 m/s, 108° | - | - |
| 1777992696 | 17.22° C | 70% | 1008.1 hPa | 0 mm | 0.89 m/s, 231° | - | - |
| 1777992396 | 17.22° C | 71% | 1008 hPa | 0 mm | 0.89 m/s, 89° | - | - |
| 1777992096 | 17.22° C | 71% | 1007.8 hPa | 0 mm | 0.89 m/s, 135° | - | - |
| 1777991796 | 17.22° C | 71% | 1007.8 hPa | 0 mm | 1.34 m/s, 108° | - | - |
| 1777991496 | 17.22° C | 70% | 1007.8 hPa | 0 mm | 1.34 m/s, 132° | - | - |
| 1777991196 | 17.22° C | 71% | 1007.9 hPa | 0 mm | 0.89 m/s, 130° | - | - |
| 1777990896 | 17.22° C | 71% | 1007.8 hPa | 0 mm | 0.89 m/s, 63° | - | - |
| 1777990596 | 17.22° C | 71% | 1007.8 hPa | 0 mm | 1.34 m/s, 96° | - | - |
| 1777990296 | 17.22° C | 71% | 1007.6 hPa | 0 mm | 1.34 m/s, 163° | - | - |
* Rain latest hour (hover to see other rain measurements)
** Current wind speed in m/s (hover to see current wind gust speed)